Time;durP1;ratioP1;P1;durP2;ratioP2;P2;SDS_P1;SDS_P2;PMS_P1;PMS_P2;Temp;Humidity;BMP_temperature;BMP_pressure;BME280_temperature;BME280_humidity;BME280_pressure;Samples;Min_cycle;Max_cycle;Signal;HPM_P1;HPM_P2
2023/10/29 00:05:26;;;;;;;0.00;0.00;;;;;;;9.97;80.03;99824.69;15723554;28;20048;-53
2023/10/29 00:13:01;;;;;;;0.00;0.00;;;;;;;9.71;81.63;99807.16;15708846;28;20063;-53
2023/10/29 00:20:35;;;;;;;0.63;0.20;;;;;;;9.95;80.48;99797.31;15707222;28;20044;-52
2023/10/29 00:28:11;;;;;;;0.00;0.00;;;;;;;10.02;79.28;99792.66;15716459;28;20068;-53
2023/10/29 00:35:44;;;;;;;0.00;0.00;;;;;;;10.20;78.64;99784.53;15690149;28;20036;-52
2023/10/29 00:43:19;;;;;;;0.00;0.00;;;;;;;10.01;79.42;99790.22;15703080;28;20518;-53
2023/10/29 00:50:52;;;;;;;0.05;0.05;;;;;;;9.78;80.34;99791.78;15703112;28;20054;-54
2023/10/29 00:58:28;;;;;;;0.03;0.03;;;;;;;9.58;81.25;99786.72;15721343;28;20090;-54
2023/10/29 01:06:02;;;;;;;0.00;0.00;;;;;;;9.70;81.03;99792.13;15684949;28;20037;-51
2023/10/29 01:13:37;;;;;;;0.17;0.17;;;;;;;9.65;80.78;99773.22;15714446;28;20048;-50
2023/10/29 01:21:10;;;;;;;0.00;0.00;;;;;;;9.69;80.72;99764.47;15693385;28;20393;-55
2023/10/29 01:28:45;;;;;;;0.10;0.10;;;;;;;9.69;80.93;99755.63;15723152;28;20451;-56
2023/10/29 01:36:18;;;;;;;0.38;0.38;;;;;;;9.85;80.44;99748.81;15717150;28;20037;-53
2023/10/29 01:43:53;;;;;;;0.10;0.10;;;;;;;9.66;81.44;99732.00;15721196;28;20385;-56
2023/10/29 01:51:27;;;;;;;0.00;0.00;;;;;;;9.51;82.23;99735.06;15718596;28;20099;-52
2023/10/29 01:59:01;;;;;;;0.03;0.03;;;;;;;9.78;82.03;99713.25;15728491;28;20114;-55
2023/10/29 02:06:38;;;;;;;0.68;0.40;;;;;;;9.89;80.76;99712.47;15730005;28;20051;-52
2023/10/29 02:14:19;;;;;;;0.13;0.08;;;;;;;10.01;81.40;99699.06;15716211;28;20560;-52
2023/10/29 02:21:55;;;;;;;0.20;0.20;;;;;;;9.90;82.17;99711.41;15714935;28;20448;-54
2023/10/29 02:29:29;;;;;;;1.55;0.98;;;;;;;10.06;81.74;99717.94;15717696;28;20071;-54
2023/10/29 02:37:04;;;;;;;0.00;0.00;;;;;;;9.82;82.38;99722.47;15707698;28;20048;-55
2023/10/29 02:44:39;;;;;;;0.08;0.08;;;;;;;9.97;81.91;99717.47;15708269;28;20113;-57
2023/10/29 02:52:15;;;;;;;0.10;0.10;;;;;;;9.90;82.91;99724.81;15720203;28;20370;-58
2023/10/29 02:59:49;;;;;;;0.05;0.03;;;;;;;9.90;83.75;99735.53;15719563;28;20426;-54
2023/10/29 03:07:25;;;;;;;0.00;0.00;;;;;;;9.82;84.96;99733.19;15692673;28;20033;-56
2023/10/29 03:15:00;;;;;;;0.15;0.15;;;;;;;9.89;84.93;99721.31;15715938;28;20088;-56
2023/10/29 03:22:35;;;;;;;0.45;0.45;;;;;;;10.06;84.02;99709.91;15716760;28;20052;-54
2023/10/29 03:30:09;;;;;;;0.35;0.35;;;;;;;10.25;84.03;99689.19;15706414;28;20086;-52
2023/10/29 03:37:43;;;;;;;0.00;0.00;;;;;;;10.56;82.53;99688.81;15703014;28;20048;-55
2023/10/29 03:45:16;;;;;;;0.00;0.00;;;;;;;10.45;82.85;99670.88;15726309;28;20498;-55
2023/10/29 03:52:51;;;;;;;0.00;0.00;;;;;;;10.48;83.35;99655.09;15712905;28;20048;-52
2023/10/29 04:00:27;;;;;;;0.00;0.00;;;;;;;10.58;83.15;99659.06;15715785;28;20059;-56
2023/10/29 04:08:02;;;;;;;;;;;;;;;10.46;83.28;99659.91;15711030;28;20062;-52
2023/10/29 04:15:36;;;;;;;0.00;0.00;;;;;;;10.72;82.40;99669.31;15717746;28;19927;-54
2023/10/29 04:23:10;;;;;;;0.00;0.00;;;;;;;10.31;84.30;99664.13;15713062;28;20552;-53
2023/10/29 04:30:44;;;;;;;0.00;0.00;;;;;;;10.32;85.03;99644.31;15709739;28;20131;-57
2023/10/29 04:38:18;;;;;;;0.15;0.15;;;;;;;10.33;85.31;99616.44;15716355;28;20044;-55
2023/10/29 04:45:51;;;;;;;0.00;0.00;;;;;;;10.23;86.09;99608.94;15711686;28;20435;-53
2023/10/29 04:53:26;;;;;;;0.00;0.00;;;;;;;10.56;85.04;99594.09;15724836;28;20043;-55
2023/10/29 05:00:59;;;;;;;0.00;0.00;;;;;;;10.39;85.60;99586.78;15700687;28;20513;-51
2023/10/29 05:08:34;;;;;;;0.00;0.00;;;;;;;10.31;85.79;99563.03;15731129;28;20436;-55
2023/10/29 05:16:10;;;;;;;0.00;0.00;;;;;;;10.32;86.67;99578.06;15725881;22;20033;-50
2023/10/29 05:23:46;;;;;;;0.00;0.00;;;;;;;10.39;86.11;99568.00;15663486;28;20040;-50
2023/10/29 05:31:19;;;;;;;0.00;0.00;;;;;;;10.45;85.89;99552.84;15716731;28;20047;-47
2023/10/29 05:38:55;;;;;;;3.47;1.58;;;;;;;10.58;85.79;99533.75;15734420;28;20400;-49
2023/10/29 05:46:30;;;;;;;0.00;0.00;;;;;;;10.59;86.05;99539.97;15695365;28;20049;-49
2023/10/29 05:54:06;;;;;;;0.00;0.00;;;;;;;10.41;87.20;99540.97;15684628;28;20485;-49
2023/10/29 06:01:40;;;;;;;0.00;0.00;;;;;;;10.57;86.96;99553.59;15678301;28;20505;-48
2023/10/29 06:09:14;;;;;;;0.00;0.00;;;;;;;10.66;86.73;99532.56;15719146;28;20036;-47
2023/10/29 06:16:55;;;;;;;0.85;0.85;;;;;;;10.53;86.93;99533.66;15707500;28;20063;-48
2023/10/29 06:24:30;;;;;;;0.00;0.00;;;;;;;10.48;86.79;99545.09;15699632;28;20048;-48
2023/10/29 06:32:03;;;;;;;0.00;0.00;;;;;;;10.79;85.77;99551.06;15675332;28;20418;-47
2023/10/29 06:39:38;;;;;;;0.00;0.00;;;;;;;10.91;85.70;99551.84;15708146;28;20472;-49
2023/10/29 06:47:11;;;;;;;0.28;0.25;;;;;;;10.71;86.13;99551.44;15731089;28;20544;-48
2023/10/29 06:54:46;;;;;;;0.00;0.00;;;;;;;11.03;85.00;99543.69;15685571;28;20048;-46
2023/10/29 07:02:19;;;;;;;0.15;0.15;;;;;;;11.01;84.68;99540.47;15701560;28;20497;-51
2023/10/29 07:09:54;;;;;;;0.00;0.00;;;;;;;11.00;84.25;99530.75;15706512;28;20032;-51
2023/10/29 07:17:27;;;;;;;0.00;0.00;;;;;;;11.01;83.73;99537.78;15702171;28;20531;-49
2023/10/29 07:25:02;;;;;;;0.03;0.03;;;;;;;10.95;83.55;99544.91;15679184;28;20124;-51
2023/10/29 07:32:36;;;;;;;0.32;0.25;;;;;;;10.83;83.82;99546.03;15722044;28;20048;-49
2023/10/29 07:40:11;;;;;;;0.00;0.00;;;;;;;10.89;84.49;99539.69;15697455;28;20052;-51
2023/10/29 07:47:45;;;;;;;0.00;0.00;;;;;;;10.78;85.21;99543.25;15684419;28;20045;-50
2023/10/29 07:55:19;;;;;;;0.10;0.10;;;;;;;10.63;86.11;99547.31;15682648;28;20033;-49
2023/10/29 08:02:53;;;;;;;1.55;1.38;;;;;;;10.84;85.65;99513.56;15713436;28;20502;-49
2023/10/29 08:10:27;;;;;;;0.00;0.00;;;;;;;10.66;85.56;99522.66;15680014;28;20091;-50
2023/10/29 08:18:04;;;;;;;1.17;0.85;;;;;;;10.77;85.16;99520.13;15676263;28;20448;-52
2023/10/29 08:25:41;;;;;;;0.00;0.00;;;;;;;10.87;85.38;99513.09;15668827;28;20037;-48
2023/10/29 08:33:15;;;;;;;6.60;1.45;;;;;;;11.05;84.32;99503.16;15677352;28;20056;-46
2023/10/29 08:40:49;;;;;;;0.75;0.47;;;;;;;11.15;84.09;99528.34;15698994;28;20606;-48
2023/10/29 08:48:25;;;;;;;0.05;0.05;;;;;;;11.26;83.35;99525.81;15700721;28;20041;-51
2023/10/29 08:56:00;;;;;;;0.00;0.00;;;;;;;11.65;82.34;99519.41;15696440;28;20051;-49
2023/10/29 09:03:33;;;;;;;0.00;0.00;;;;;;;11.56;82.30;99528.16;15709522;28;20042;-50
2023/10/29 09:11:13;;;;;;;0.00;0.00;;;;;;;11.84;81.17;99519.97;15687112;28;20049;-52
2023/10/29 09:18:47;;;;;;;0.00;0.00;;;;;;;12.12;81.20;99524.38;15676929;28;20061;-50
2023/10/29 09:26:23;;;;;;;0.10;0.10;;;;;;;12.28;79.76;99520.00;15712686;28;20047;-52
2023/10/29 09:33:56;;;;;;;0.00;0.00;;;;;;;12.39;79.25;99526.31;15754470;28;20453;-49
2023/10/29 09:41:32;;;;;;;;;;;;;;;12.38;78.37;99530.88;15750863;28;20056;-54
2023/10/29 09:49:06;;;;;;;0.10;0.10;;;;;;;12.24;78.22;99543.09;15733915;28;19920;-50
2023/10/29 09:56:41;;;;;;;0.32;0.20;;;;;;;12.16;78.54;99548.91;15718293;28;20497;-53
2023/10/29 10:04:14;;;;;;;0.00;0.00;;;;;;;11.84;79.64;99540.66;15763533;28;20078;-52
2023/10/29 10:12:02;;;;;;;;;;;;;;;12.03;78.01;99536.66;15752761;28;20041;-50
2023/10/29 10:19:35;;;;;;;0.17;0.05;;;;;;;12.35;75.67;99536.75;15743293;28;19927;-50
2023/10/29 10:27:12;;;;;;;0.00;0.00;;;;;;;12.66;73.40;99529.03;15745125;28;20464;-50
2023/10/29 10:34:52;;;;;;;0.00;0.00;;;;;;;12.70;74.63;99519.38;15770841;28;20041;-49
2023/10/29 10:42:26;;;;;;;0.00;0.00;;;;;;;12.74;74.78;99520.50;15720509;28;20051;-48
2023/10/29 10:50:00;;;;;;;0.00;0.00;;;;;;;12.76;74.84;99519.16;15717350;28;20521;-48
2023/10/29 10:57:36;;;;;;;0.00;0.00;;;;;;;13.45;73.05;99539.19;15709581;28;20051;-52
2023/10/29 11:05:10;;;;;;;0.00;0.00;;;;;;;13.71;73.36;99522.13;15754834;28;20135;-52
2023/10/29 11:12:46;;;;;;;0.00;0.00;;;;;;;14.41;69.70;99479.53;15763657;28;20048;-48
2023/10/29 11:20:54;;;;;;;0.00;0.00;;;;;;;14.12;69.34;99487.22;15724845;22;20131;-52
2023/10/29 11:28:45;;;;;;;0.00;0.00;;;;;;;14.53;68.89;99499.00;15727962;28;20232;-48
2023/10/29 11:36:32;;;;;;;0.45;0.45;;;;;;;14.23;69.63;99497.00;15679540;28;20033;-48
2023/10/29 11:44:23;;;;;;;0.00;0.00;;;;;;;14.63;68.29;99497.41;15724356;28;20037;-49
2023/10/29 11:52:01;;;;;;;0.00;0.00;;;;;;;14.40;69.36;99498.66;15733513;28;20102;-50
2023/10/29 11:59:53;;;;;;;0.00;0.00;;;;;;;14.77;67.93;99504.72;15726002;28;20120;-51
2023/10/29 12:07:29;;;;;;;0.00;0.00;;;;;;;14.66;67.58;99518.47;15695353;28;20060;-50
2023/10/29 12:15:07;;;;;;;0.00;0.00;;;;;;;14.83;66.53;99520.94;15712579;28;20045;-52
2023/10/29 12:22:40;;;;;;;0.10;0.10;;;;;;;15.29;66.56;99511.78;15702453;28;20404;-49
2023/10/29 12:30:40;;;;;;;0.00;0.00;;;;;;;15.05;66.37;99510.69;15707996;28;20069;-52
2023/10/29 12:38:13;;;;;;;0.00;0.00;;;;;;;15.03;68.19;99516.38;15709922;28;20492;-50
2023/10/29 12:45:49;;;;;;;0.00;0.00;;;;;;;15.54;66.03;99515.53;15715141;28;20093;-52
2023/10/29 12:53:24;;;;;;;0.00;0.00;;;;;;;15.25;67.24;99499.91;15733033;28;20469;-49
2023/10/29 13:00:59;;;;;;;1.13;0.43;;;;;;;15.00;67.07;99492.59;15695035;28;20037;-50
2023/10/29 13:08:35;;;;;;;0.00;0.00;;;;;;;14.82;67.81;99484.19;15700396;28;20128;-52
2023/10/29 13:16:09;;;;;;;0.08;0.08;;;;;;;15.18;66.53;99496.66;15722529;28;20081;-49
2023/10/29 13:23:43;;;;;;;0.22;0.22;;;;;;;15.19;66.39;99498.25;15715458;28;20080;-53
2023/10/29 13:31:17;;;;;;;0.10;0.10;;;;;;;15.30;65.92;99508.00;15692158;28;20041;-49
2023/10/29 13:38:51;;;;;;;0.00;0.00;;;;;;;14.79;67.38;99493.66;15692365;28;20135;-49
2023/10/29 13:46:26;;;;;;;0.00;0.00;;;;;;;14.70;67.67;99492.56;15705504;28;20493;-49
2023/10/29 13:54:05;;;;;;;0.00;0.00;;;;;;;14.62;67.92;99503.88;15694792;28;20501;-52
2023/10/29 14:01:48;;;;;;;0.00;0.00;;;;;;;14.84;67.61;99495.56;15684990;28;20132;-49
2023/10/29 14:09:27;;;;;;;0.00;0.00;;;;;;;14.78;67.36;99471.25;15724715;28;20047;-49
2023/10/29 14:17:07;;;;;;;0.00;0.00;;;;;;;14.82;66.94;99471.50;15704405;28;20029;-49
2023/10/29 14:24:43;;;;;;;0.00;0.00;;;;;;;14.18;69.85;99459.22;15715714;28;20083;-49
2023/10/29 14:32:21;;;;;;;0.00;0.00;;;;;;;14.22;71.36;99464.88;15727274;28;20039;-49
2023/10/29 14:39:55;;;;;;;0.00;0.00;;;;;;;14.36;71.46;99457.06;15720354;28;20475;-49
2023/10/29 14:47:29;;;;;;;0.00;0.00;;;;;;;14.19;72.01;99468.13;15715248;28;20037;-48
2023/10/29 14:55:04;;;;;;;0.00;0.00;;;;;;;14.24;71.50;99492.41;15715711;28;20567;-51
2023/10/29 15:02:39;;;;;;;0.05;0.05;;;;;;;14.05;71.72;99483.97;15699285;28;20069;-52
2023/10/29 15:10:13;;;;;;;0.00;0.00;;;;;;;14.37;71.61;99483.03;15716357;28;20044;-48
2023/10/29 15:17:49;;;;;;;0.00;0.00;;;;;;;14.46;70.99;99486.81;15688424;28;20053;-48
2023/10/29 15:25:23;;;;;;;0.00;0.00;;;;;;;14.30;72.00;99497.56;15699135;28;20047;-50
2023/10/29 15:33:01;;;;;;;0.15;0.15;;;;;;;14.39;71.65;99494.34;15694793;28;20041;-54
2023/10/29 15:40:34;;;;;;;0.00;0.00;;;;;;;14.28;71.83;99485.41;15697252;28;20402;-49
2023/10/29 15:48:10;;;;;;;0.10;0.08;;;;;;;14.46;71.18;99497.63;15715535;28;20043;-53
2023/10/29 15:55:43;;;;;;;0.00;0.00;;;;;;;14.14;72.20;99516.69;15708364;28;20492;-52
2023/10/29 16:03:18;;;;;;;0.00;0.00;;;;;;;14.38;72.21;99503.53;15685714;28;20047;-49
2023/10/29 16:10:54;;;;;;;0.00;0.00;;;;;;;14.40;72.73;99493.28;15698705;28;20574;-51
2023/10/29 16:18:30;;;;;;;0.00;0.00;;;;;;;14.13;74.37;99464.59;15682379;28;20041;-53
2023/10/29 16:26:04;;;;;;;0.00;0.00;;;;;;;14.23;73.56;99443.03;15697069;28;20029;-48
2023/10/29 16:33:43;;;;;;;0.00;0.00;;;;;;;13.58;76.09;99440.88;15724521;28;20044;-50
2023/10/29 16:41:16;;;;;;;0.00;0.00;;;;;;;13.73;75.79;99432.88;15712926;28;20123;-52
2023/10/29 16:48:51;;;;;;;0.00;0.00;;;;;;;13.89;75.06;99434.53;15737313;28;20123;-51
2023/10/29 16:56:25;;;;;;;0.00;0.00;;;;;;;13.44;76.72;99459.41;15703697;28;20044;-51
2023/10/29 17:04:02;;;;;;;0.00;0.00;;;;;;;13.50;76.69;99445.69;15712211;28;20532;-51
2023/10/29 17:11:36;;;;;;;0.00;0.00;;;;;;;13.45;77.13;99420.59;15669601;28;20398;-48
2023/10/29 17:19:11;;;;;;;;;;;;;;;13.67;76.21;99450.91;15718440;28;20060;-51
2023/10/29 17:26:44;;;;;;;0.00;0.00;;;;;;;13.28;77.49;99424.25;15747944;28;19928;-50
2023/10/29 17:34:18;;;;;;;0.00;0.00;;;;;;;13.59;76.33;99419.03;15712512;28;20086;-53
2023/10/29 17:41:52;;;;;;;0.00;0.00;;;;;;;13.42;76.75;99410.31;15685383;28;20358;-54
2023/10/29 17:49:27;;;;;;;0.40;0.40;;;;;;;13.92;75.43;99447.50;15704137;28;20048;-50
2023/10/29 17:57:00;;;;;;;0.00;0.00;;;;;;;13.72;75.35;99463.59;15731165;28;20087;-52
2023/10/29 18:04:37;;;;;;;0.00;0.00;;;;;;;13.74;75.46;99470.34;15725779;28;20032;-51
2023/10/29 18:12:19;;;;;;;0.00;0.00;;;;;;;13.97;75.23;99474.50;15719239;28;20513;-54
2023/10/29 18:19:55;;;;;;;0.22;0.22;;;;;;;13.88;75.60;99467.19;15719868;28;20048;-51
2023/10/29 18:27:28;;;;;;;0.00;0.00;;;;;;;14.22;75.06;99456.78;15727965;28;20036;-50
2023/10/29 18:35:03;;;;;;;;;;;;;;;13.68;77.54;99486.78;15718744;28;20044;-51
2023/10/29 18:42:36;;;;;;;0.00;0.00;;;;;;;13.61;78.26;99494.28;15733134;28;20300;-47
2023/10/29 18:50:11;;;;;;;0.45;0.45;;;;;;;13.24;80.51;99482.47;15723433;28;20044;-50
2023/10/29 18:57:44;;;;;;;0.00;0.00;;;;;;;13.46;80.32;99422.22;15729109;28;20435;-52
2023/10/29 19:05:19;;;;;;;0.00;0.00;;;;;;;13.28;81.15;99435.03;15730734;28;20471;-50
2023/10/29 19:12:53;;;;;;;0.00;0.00;;;;;;;13.26;81.10;99452.56;15721632;28;20049;-50
2023/10/29 19:20:28;;;;;;;0.00;0.00;;;;;;;13.20;80.24;99467.84;15718262;28;20040;-49
2023/10/29 19:28:01;;;;;;;0.45;0.32;;;;;;;13.35;80.19;99514.88;15708393;28;20123;-50
2023/10/29 19:35:36;;;;;;;0.00;0.00;;;;;;;13.21;79.87;99496.41;15716658;28;20479;-50
2023/10/29 19:43:09;;;;;;;0.65;0.20;;;;;;;13.24;78.98;99508.56;15720718;28;20469;-48
2023/10/29 19:50:45;;;;;;;0.00;0.00;;;;;;;13.36;77.95;99538.03;15709989;28;20569;-53
2023/10/29 19:58:18;;;;;;;0.00;0.00;;;;;;;13.42;76.55;99518.13;15711802;28;20032;-49
2023/10/29 20:05:54;;;;;;;0.00;0.00;;;;;;;13.49;75.25;99438.69;15722441;28;20179;-48
2023/10/29 20:13:27;;;;;;;3.28;0.52;;;;;;;13.56;74.70;99434.94;15710448;28;20131;-51
2023/10/29 20:21:01;;;;;;;0.00;0.00;;;;;;;13.47;74.43;99483.94;15720900;28;20041;-54
2023/10/29 20:28:35;;;;;;;0.00;0.00;;;;;;;13.52;74.82;99504.72;15719895;28;20040;-53
2023/10/29 20:36:10;;;;;;;0.10;0.10;;;;;;;13.45;75.67;99501.47;15722334;28;20055;-53
2023/10/29 20:43:43;;;;;;;0.00;0.00;;;;;;;13.24;75.70;99512.09;15728809;28;20040;-51
2023/10/29 20:51:18;;;;;;;;;;;;;;;13.00;76.68;99514.28;15732159;28;20084;-54
2023/10/29 20:58:51;;;;;;;0.00;0.00;;;;;;;12.86;76.79;99545.38;15742480;28;19920;-55
2023/10/29 21:06:30;;;;;;;0.00;0.00;;;;;;;12.84;75.98;99535.94;15744237;28;20101;-54
2023/10/29 21:14:04;;;;;;;2.17;0.30;;;;;;;12.79;76.04;99560.94;15747662;28;20040;-51
2023/10/29 21:21:38;;;;;;;0.00;0.00;;;;;;;12.89;76.53;99577.19;15726627;28;20489;-55
2023/10/29 21:29:12;;;;;;;0.00;0.00;;;;;;;13.13;75.76;99593.06;15728421;28;20049;-51
2023/10/29 21:36:46;;;;;;;0.00;0.00;;;;;;;12.94;75.82;99601.50;15727818;28;20119;-53
2023/10/29 21:44:20;;;;;;;0.00;0.00;;;;;;;13.04;75.30;99606.16;15716003;28;20079;-54
2023/10/29 21:51:55;;;;;;;;;;;;;;;13.07;75.15;99618.34;15744548;28;20105;-54
2023/10/29 21:59:28;;;;;;;0.00;0.00;;;;;;;12.61;76.68;99637.47;15712941;28;19966;-54
2023/10/29 22:07:03;;;;;;;0.00;0.00;;;;;;;12.92;75.29;99633.25;15712265;28;20037;-53
2023/10/29 22:14:36;;;;;;;0.00;0.00;;;;;;;12.59;76.65;99647.69;15726225;28;20056;-50
2023/10/29 22:22:12;;;;;;;0.00;0.00;;;;;;;12.85;75.65;99643.41;15715133;28;20141;-52
2023/10/29 22:29:45;;;;;;;0.00;0.00;;;;;;;12.71;75.85;99640.28;15730923;28;20505;-54
2023/10/29 22:37:20;;;;;;;0.30;0.25;;;;;;;12.66;76.03;99650.19;15726091;28;20382;-53
2023/10/29 22:44:56;;;;;;;0.00;0.00;;;;;;;12.66;75.90;99650.19;15718647;28;20043;-52
2023/10/29 22:52:30;;;;;;;0.00;0.00;;;;;;;12.25;77.29;99639.69;15718722;28;20045;-51
2023/10/29 23:00:09;;;;;;;0.00;0.00;;;;;;;12.47;76.51;99673.91;15722768;28;20044;-55
2023/10/29 23:07:48;;;;;;;0.38;0.38;;;;;;;12.40;77.13;99676.78;15725964;28;20055;-55
2023/10/29 23:15:22;;;;;;;0.00;0.00;;;;;;;12.64;75.52;99693.50;15728731;28;20497;-53
2023/10/29 23:22:57;;;;;;;4.57;0.65;;;;;;;12.28;76.95;99705.66;15708063;28;20140;-54
2023/10/29 23:30:31;;;;;;;0.00;0.00;;;;;;;12.43;76.63;99702.38;15729165;28;20045;-51
2023/10/29 23:38:07;;;;;;;0.00;0.00;;;;;;;12.22;77.11;99720.09;15692285;28;20040;-50
2023/10/29 23:45:42;;;;;;;0.03;0.03;;;;;;;12.16;77.57;99721.06;15700889;28;20072;-50
2023/10/29 23:53:19;;;;;;;0.00;0.00;;;;;;;12.35;76.20;99722.44;15735362;28;20040;-51
